Time;durP1;ratioP1;P1;durP2;ratioP2;P2;SDS_P1;SDS_P2;PMS_P1;PMS_P2;Temp;Humidity;BMP_temperature;BMP_pressure;BME280_temperature;BME280_humidity;BME280_pressure;Samples;Min_cycle;Max_cycle;Signal;HPM_P1;HPM_P2
2022/01/02 00:00:09;;;;;;;23.20;14.77;;;;;;;9.87;64.05;99573.94;5040243;28;20235;-66
2022/01/02 00:02:39;;;;;;;23.47;15.50;;;;;;;10.39;62.53;99553.06;5012826;28;20696;-67
2022/01/02 00:05:15;;;;;;;21.53;15.53;;;;;;;10.31;63.02;99569.09;5019431;28;20230;-66
2022/01/02 00:07:48;;;;;;;23.00;15.67;;;;;;;10.68;61.78;99541.69;5018185;28;20228;-66
2022/01/02 00:10:20;;;;;;;23.13;16.37;;;;;;;10.36;62.31;99566.75;5031064;28;20229;-66
2022/01/02 00:12:56;;;;;;;22.23;15.93;;;;;;;10.53;61.70;99556.81;5044050;28;20611;-66
2022/01/02 00:15:24;;;;;;;23.10;16.20;;;;;;;10.27;62.62;99579.28;5045021;28;20246;-66
2022/01/02 00:17:57;;;;;;;20.67;15.97;;;;;;;10.40;62.01;99568.88;5042056;28;20228;-66
2022/01/02 00:20:32;;;;;;;24.67;16.00;;;;;;;10.72;60.78;99559.00;5039069;28;20244;-66
2022/01/02 00:23:02;;;;;;;20.97;14.87;;;;;;;10.55;60.64;99565.47;5019910;28;20237;-67
2022/01/02 00:25:34;;;;;;;21.67;15.50;;;;;;;7.35;69.17;99629.78;5042913;28;20224;-66
2022/01/02 00:28:01;;;;;;;21.57;14.80;;;;;;;6.61;74.52;99658.25;5044317;28;20271;-66
2022/01/02 00:30:41;;;;;;;20.80;13.67;;;;;;;6.27;74.72;99645.56;5043586;28;20259;-66
2022/01/02 00:33:08;;;;;;;19.87;13.47;;;;;;;6.67;75.06;99624.03;5032189;28;20656;-66
2022/01/02 00:35:36;;;;;;;16.83;13.90;;;;;;;6.05;76.05;99626.41;5030494;28;20255;-66
2022/01/02 00:38:15;;;;;;;20.13;13.83;;;;;;;6.60;71.09;99595.63;5043541;28;20720;-66
2022/01/02 00:40:45;;;;;;;17.93;13.30;;;;;;;8.27;65.92;99527.41;5031967;28;20236;-66
2022/01/02 00:43:19;;;;;;;18.63;12.47;;;;;;;6.84;68.21;99587.09;5047252;28;20706;-66
2022/01/02 00:45:51;;;;;;;18.17;12.80;;;;;;;6.60;73.85;99593.00;5046581;28;20228;-67
2022/01/02 00:48:33;;;;;;;15.57;12.53;;;;;;;6.60;70.54;99574.44;5036054;28;20236;-66
2022/01/02 00:51:03;;;;;;;16.33;12.90;;;;;;;5.07;76.85;99599.34;5042538;28;20246;-66
2022/01/02 00:53:35;;;;;;;16.53;11.50;;;;;;;4.96;78.32;99596.88;5047844;28;20243;-66
2022/01/02 00:56:04;;;;;;;17.40;12.53;;;;;;;6.56;73.68;99534.16;5046135;28;20925;-66
2022/01/02 00:58:51;;;;;;;18.67;13.37;;;;;;;7.77;67.92;99491.88;5044736;28;20228;-66
2022/01/02 01:01:25;;;;;;;17.20;12.83;;;;;;;8.55;64.73;99492.53;5034695;28;20232;-66
2022/01/02 01:03:54;;;;;;;16.80;13.27;;;;;;;9.49;62.70;99455.69;5037224;28;20234;-66
2022/01/02 01:06:26;;;;;;;20.80;15.60;;;;;;;9.48;61.64;99493.97;5046175;28;20227;-66
2022/01/02 01:08:56;;;;;;;19.30;13.20;;;;;;;9.05;62.99;99514.69;5046477;28;20223;-66
2022/01/02 01:11:28;;;;;;;22.63;15.20;;;;;;;9.57;61.97;99478.81;5047775;28;20228;-66
2022/01/02 01:13:58;;;;;;;18.63;13.03;;;;;;;7.69;67.38;99537.00;5042191;28;20240;-66
2022/01/02 01:16:26;;;;;;;16.27;13.27;;;;;;;7.10;69.36;99573.91;5039844;28;21469;-66
2022/01/02 01:18:53;;;;;;;17.03;13.07;;;;;;;8.81;63.32;99495.91;5045494;28;20903;-67
2022/01/02 01:21:20;;;;;;;18.63;13.93;;;;;;;9.11;62.20;99482.91;5047986;28;20227;-66
2022/01/02 01:23:47;;;;;;;17.23;13.40;;;;;;;9.26;61.92;99484.91;5041006;28;20739;-66
2022/01/02 01:26:17;;;;;;;19.10;13.93;;;;;;;8.78;62.90;99528.19;5047137;28;20220;-66
2022/01/02 01:28:44;;;;;;;21.63;14.17;;;;;;;8.91;62.50;99510.88;5035363;28;20229;-67
2022/01/02 01:31:11;;;;;;;20.57;13.60;;;;;;;8.73;63.15;99538.41;5041146;28;20223;-66
2022/01/02 01:33:38;;;;;;;19.77;14.93;;;;;;;8.61;63.44;99550.38;5046720;28;20227;-66
2022/01/02 01:36:05;;;;;;;20.20;14.53;;;;;;;8.65;64.40;99542.91;5044828;28;20238;-66
2022/01/02 01:38:31;;;;;;;20.60;14.80;;;;;;;8.93;62.80;99523.00;5044838;28;20782;-66
2022/01/02 01:41:05;;;;;;;24.43;16.07;;;;;;;8.94;62.57;99526.50;5037278;28;20244;-66
2022/01/02 01:43:51;;;;;;;21.20;14.50;;;;;;;8.43;64.17;99556.69;5041144;28;20230;-66
2022/01/02 01:46:18;;;;;;;21.47;14.73;;;;;;;9.60;61.41;99479.28;5044902;28;20224;-66
2022/01/02 01:48:55;;;;;;;20.47;15.50;;;;;;;9.27;61.87;99506.00;5046055;28;20234;-66
2022/01/02 01:51:23;;;;;;;23.37;15.10;;;;;;;8.95;62.52;99517.50;5046411;28;20590;-66
2022/01/02 01:53:50;;;;;;;21.20;15.00;;;;;;;8.93;62.64;99512.34;5042654;28;20234;-66
2022/01/02 01:56:17;;;;;;;24.33;15.93;;;;;;;8.64;63.33;99539.41;5035647;28;20229;-66
2022/01/02 01:58:44;;;;;;;21.73;14.90;;;;;;;8.05;65.74;99574.00;5042222;28;20260;-66
2022/01/02 02:01:11;;;;;;;24.60;17.07;;;;;;;8.30;65.18;99551.00;5046764;28;20220;-66
2022/01/02 02:03:39;;;;;;;24.67;16.53;;;;;;;8.80;63.10;99514.69;5042259;28;20228;-66
2022/01/02 02:06:06;;;;;;;23.23;16.37;;;;;;;8.78;63.24;99514.88;5044123;28;20694;-66
2022/01/02 02:08:33;;;;;;;26.00;16.37;;;;;;;8.16;65.11;99544.47;5033457;28;20227;-66
2022/01/02 02:11:00;;;;;;;22.43;16.27;;;;;;;8.43;64.01;99516.81;5041179;28;20749;-66
2022/01/02 02:13:27;;;;;;;25.47;16.20;;;;;;;8.14;64.52;99537.66;5044981;28;20220;-66
2022/01/02 02:15:57;;;;;;;22.73;15.30;;;;;;;7.73;66.12;99562.22;5041644;28;20242;-66
2022/01/02 02:18:24;;;;;;;21.87;15.23;;;;;;;8.90;63.33;99499.41;5044542;28;20216;-66
2022/01/02 02:20:51;;;;;;;22.93;15.83;;;;;;;8.20;64.75;99548.47;5037388;28;20247;-66
2022/01/02 02:23:18;;;;;;;24.20;16.03;;;;;;;8.67;63.36;99498.34;5036137;28;20223;-66
2022/01/02 02:25:44;;;;;;;20.67;14.67;;;;;;;8.66;62.79;99516.16;5046440;28;20225;-66
2022/01/02 02:28:14;;;;;;;22.43;15.70;;;;;;;8.73;63.29;99505.69;5045510;28;20235;-66
2022/01/02 02:30:43;;;;;;;20.47;15.63;;;;;;;8.98;62.56;99479.94;5044083;28;20310;-66
2022/01/02 02:33:12;;;;;;;22.33;15.30;;;;;;;9.23;61.54;99464.75;5039439;28;20230;-66
2022/01/02 02:35:41;;;;;;;20.73;14.37;;;;;;;8.75;62.33;99485.94;5036329;28;20224;-66
2022/01/02 02:38:10;;;;;;;19.40;14.47;;;;;;;8.73;63.12;99490.56;5044266;28;20317;-66
2022/01/02 02:40:37;;;;;;;19.33;15.00;;;;;;;8.69;63.18;99488.41;5045512;28;20242;-66
2022/01/02 02:51:26;;;;;;;18.63;14.20;;;;;;;8.85;62.12;99479.63;5044881;28;20227;-66
2022/01/02 02:53:54;;;;;;;18.90;13.73;;;;;;;8.88;61.99;99468.66;5043677;28;20226;-66
2022/01/02 02:56:28;;;;;;;21.77;13.83;;;;;;;8.45;62.25;99495.38;5044653;28;20234;-66
2022/01/02 02:58:57;;;;;;;19.23;14.07;;;;;;;9.40;60.67;99441.59;5043191;28;20650;-66
2022/01/02 03:01:26;;;;;;;20.43;13.63;;;;;;;9.17;60.67;99445.00;5035631;28;20930;-66
2022/01/02 03:03:55;;;;;;;19.67;13.80;;;;;;;9.25;59.89;99433.47;5042425;28;20856;-66
2022/01/02 03:06:22;;;;;;;16.07;13.03;;;;;;;6.54;66.20;99510.47;5044378;28;20238;-66
2022/01/02 03:08:50;;;;;;;18.87;13.43;;;;;;;5.09;72.01;99540.06;5042379;28;20235;-66
2022/01/02 03:11:20;;;;;;;18.50;13.00;;;;;;;5.48;72.69;99549.75;5045299;28;20898;-66
2022/01/02 03:13:49;;;;;;;16.30;13.57;;;;;;;6.70;68.78;99501.81;5035632;28;20228;-68
2022/01/02 03:16:17;;;;;;;19.20;13.63;;;;;;;7.00;68.21;99481.16;5037759;28;20714;-68
2022/01/02 03:18:44;;;;;;;18.17;14.07;;;;;;;6.27;66.39;99500.72;5045694;28;20258;-68
2022/01/02 03:21:12;;;;;;;19.73;14.27;;;;;;;5.69;68.58;99524.88;5039659;28;20231;-68
2022/01/02 03:23:39;;;;;;;17.93;13.47;;;;;;;7.91;63.59;99425.84;5045115;28;20228;-68
2022/01/02 03:26:07;;;;;;;18.50;12.70;;;;;;;5.71;68.63;99514.97;5040069;28;20228;-68
2022/01/02 03:28:34;;;;;;;16.67;12.77;;;;;;;6.39;66.67;99490.78;5036684;28;20468;-68
2022/01/02 03:31:02;;;;;;;19.23;13.30;;;;;;;7.09;67.24;99445.72;5042621;28;20228;-68
2022/01/02 03:33:29;;;;;;;18.17;12.90;;;;;;;5.39;69.45;99517.03;5033547;28;20607;-68
2022/01/02 03:35:56;;;;;;;15.73;12.13;;;;;;;5.83;70.19;99519.94;5023912;28;20232;-68
2022/01/02 03:38:23;;;;;;;15.87;12.03;;;;;;;6.93;66.57;99445.66;5027154;28;20637;-68
2022/01/02 03:40:50;;;;;;;17.20;12.60;;;;;;;7.54;63.84;99414.63;5024985;28;20235;-68
2022/01/02 03:43:17;;;;;;;15.53;12.37;;;;;;;6.11;65.63;99471.41;5037608;28;20224;-68
2022/01/02 03:45:44;;;;;;;15.37;12.60;;;;;;;4.68;72.22;99506.84;5046023;28;20227;-68
2022/01/02 03:48:11;;;;;;;16.73;11.67;;;;;;;4.50;73.12;99501.41;5044456;28;20230;-68
2022/01/02 03:50:38;;;;;;;16.57;13.23;;;;;;;4.44;73.67;99489.59;5048902;28;20232;-68
2022/01/02 03:53:06;;;;;;;15.30;11.83;;;;;;;4.09;73.68;99467.19;5041130;28;20243;-68
2022/01/02 03:55:33;;;;;;;16.33;12.47;;;;;;;4.72;73.44;99453.56;5037853;28;20231;-68
2022/01/02 03:58:00;;;;;;;16.83;12.20;;;;;;;3.94;74.33;99458.00;5046241;28;20224;-68
2022/01/02 04:00:28;;;;;;;16.73;12.13;;;;;;;4.11;73.56;99449.41;5048348;28;20231;-68
2022/01/02 04:02:55;;;;;;;17.57;12.60;;;;;;;5.50;72.01;99394.34;5045189;28;20242;-68
2022/01/02 04:05:22;;;;;;;19.73;12.57;;;;;;;4.84;71.88;99421.72;5047246;28;20228;-68
2022/01/02 04:07:49;;;;;;;17.27;12.73;;;;;;;4.61;71.63;99439.69;5035541;28;20228;-68
2022/01/02 04:10:18;;;;;;;16.63;12.70;;;;;;;5.01;71.51;99423.63;5046745;28;20585;-68
2022/01/02 04:12:45;;;;;;;15.03;12.50;;;;;;;7.99;62.74;99311.66;5047752;28;20236;-68
2022/01/02 04:15:13;;;;;;;17.83;12.80;;;;;;;8.66;60.54;99291.97;5046892;28;20220;-68
2022/01/02 04:17:42;;;;;;;17.03;12.77;;;;;;;8.70;59.77;99320.72;5048742;28;20220;-68
2022/01/02 04:20:11;;;;;;;15.43;12.00;;;;;;;8.53;60.45;99337.69;5039382;28;20269;-66
2022/01/02 04:22:39;;;;;;;17.07;12.20;;;;;;;8.83;59.13;99330.03;5042171;28;20236;-68
2022/01/02 04:25:07;;;;;;;16.87;13.17;;;;;;;8.95;58.72;99324.16;5046794;28;20223;-68
2022/01/02 04:27:35;;;;;;;17.30;12.00;;;;;;;8.16;60.83;99368.28;5048189;28;20604;-68
2022/01/02 04:30:04;;;;;;;15.70;12.33;;;;;;;8.88;59.52;99333.81;5044709;28;20236;-68
2022/01/02 04:32:31;;;;;;;17.00;12.37;;;;;;;8.91;59.32;99330.00;5042100;28;20239;-68
2022/01/02 04:34:58;;;;;;;15.43;12.17;;;;;;;7.76;61.52;99383.19;5037802;28;20262;-68
2022/01/02 04:37:25;;;;;;;18.17;12.43;;;;;;;6.51;65.17;99414.53;5048859;28;20220;-68
2022/01/02 04:39:52;;;;;;;15.57;12.10;;;;;;;7.52;64.10;99380.28;5047748;28;20224;-68
2022/01/02 04:42:19;;;;;;;15.13;11.70;;;;;;;8.68;60.33;99337.84;5045723;28;20230;-68
2022/01/02 04:44:46;;;;;;;16.23;11.43;;;;;;;8.88;59.08;99328.50;5046659;28;20232;-68
2022/01/02 04:47:13;;;;;;;16.27;12.10;;;;;;;8.24;60.19;99374.44;5037888;28;20238;-68
2022/01/02 04:49:40;;;;;;;15.53;11.20;;;;;;;8.45;60.61;99365.13;5044595;28;20228;-68
2022/01/02 04:52:07;;;;;;;14.17;11.67;;;;;;;8.59;60.23;99345.00;5045523;28;20576;-68
2022/01/02 04:54:34;;;;;;;16.13;11.20;;;;;;;9.26;58.63;99307.41;5046400;28;20226;-68
2022/01/02 04:57:01;;;;;;;15.87;12.47;;;;;;;9.33;58.77;99307.53;5045500;28;20232;-68
2022/01/02 04:59:27;;;;;;;15.60;11.97;;;;;;;6.21;64.62;99368.88;5043066;28;20246;-68
2022/01/02 05:01:55;;;;;;;16.50;11.83;;;;;;;6.18;67.07;99396.50;5038279;28;20234;-68
2022/01/02 05:04:22;;;;;;;15.93;11.40;;;;;;;5.54;70.10;99431.91;5046216;28;20226;-68
2022/01/02 05:06:49;;;;;;;13.27;11.57;;;;;;;7.30;65.25;99330.41;5039741;28;20272;-68
2022/01/02 05:09:16;;;;;;;13.93;11.10;;;;;;;8.66;61.24;99299.97;5044035;28;20711;-68
2022/01/02 05:11:43;;;;;;;15.03;11.87;;;;;;;8.99;59.08;99290.88;5046458;28;20232;-68
2022/01/02 05:14:10;;;;;;;14.83;11.63;;;;;;;6.16;66.86;99408.25;5035740;28;20232;-68
2022/01/02 05:16:37;;;;;;;14.53;11.17;;;;;;;5.96;66.85;99403.06;5045801;28;20228;-68
2022/01/02 05:19:04;;;;;;;13.60;11.03;;;;;;;7.00;64.56;99353.88;5045710;28;20229;-68
2022/01/02 05:21:31;;;;;;;13.53;10.80;;;;;;;5.07;70.08;99420.41;5041847;28;20220;-68
2022/01/02 05:23:58;;;;;;;14.50;11.57;;;;;;;7.75;63.03;99313.31;5044821;28;20602;-68
2022/01/02 05:26:25;;;;;;;15.33;11.03;;;;;;;6.58;64.62;99370.53;5038560;28;20228;-68
2022/01/02 05:28:52;;;;;;;13.73;11.00;;;;;;;5.14;70.03;99425.09;5039460;28;20237;-68
2022/01/02 05:31:19;;;;;;;15.20;11.73;;;;;;;7.72;63.74;99315.47;5044321;28;20277;-68
2022/01/02 05:33:46;;;;;;;18.07;12.17;;;;;;;8.04;61.85;99330.59;5044641;28;20224;-68
2022/01/02 05:36:13;;;;;;;14.50;11.23;;;;;;;9.02;59.10;99280.91;5044763;28;20602;-68
2022/01/02 05:38:40;;;;;;;15.37;11.17;;;;;;;5.72;66.73;99371.09;5038718;28;20244;-68
2022/01/02 05:41:07;;;;;;;16.23;11.63;;;;;;;5.86;67.58;99390.91;5036163;28;20253;-69
2022/01/02 05:43:34;;;;;;;17.20;11.37;;;;;;;7.67;63.95;99305.31;5045821;28;20231;-68
2022/01/02 05:46:05;;;;;;;15.10;11.83;;;;;;;5.53;67.50;99378.16;5044732;28;20224;-68
2022/01/02 05:48:33;;;;;;;16.53;11.60;;;;;;;7.63;62.68;99315.44;5046435;28;20715;-68
2022/01/02 05:51:01;;;;;;;12.87;10.70;;;;;;;7.17;62.37;99348.63;5044959;28;20730;-68
2022/01/02 05:53:29;;;;;;;12.90;10.50;;;;;;;7.90;62.69;99316.16;5038287;28;20226;-68
2022/01/02 05:55:56;;;;;;;14.30;11.37;;;;;;;8.62;59.81;99283.53;5040552;28;20226;-68
2022/01/02 05:58:23;;;;;;;14.67;11.17;;;;;;;7.27;63.60;99352.00;5045399;28;20224;-68
2022/01/02 06:00:50;;;;;;;15.20;11.77;;;;;;;5.86;67.00;99396.19;5044941;28;20667;-68
2022/01/02 06:03:18;;;;;;;14.40;10.90;;;;;;;4.51;70.73;99392.13;5046575;28;20706;-68
2022/01/02 06:05:46;;;;;;;13.87;10.97;;;;;;;4.20;72.38;99402.88;5036735;28;20263;-68
2022/01/02 06:08:13;;;;;;;14.17;11.17;;;;;;;4.12;72.85;99411.47;5037271;28;20302;-68
2022/01/02 06:10:40;;;;;;;14.83;10.63;;;;;;;5.25;68.80;99388.75;5046377;28;20246;-68
2022/01/02 06:13:07;;;;;;;15.30;11.40;;;;;;;5.00;69.08;99386.75;5043063;28;20234;-68
2022/01/02 06:15:34;;;;;;;14.57;10.90;;;;;;;6.08;68.93;99350.72;5044532;28;20220;-68
2022/01/02 06:18:01;;;;;;;13.50;10.07;;;;;;;5.22;68.93;99394.31;5043977;28;20231;-68
2022/01/02 06:20:28;;;;;;;12.27;10.27;;;;;;;5.47;69.21;99391.97;5036240;28;20236;-68
2022/01/02 06:22:55;;;;;;;14.33;11.27;;;;;;;5.04;70.35;99401.34;5041136;28;20232;-68
2022/01/02 06:25:22;;;;;;;13.43;10.70;;;;;;;4.73;70.47;99402.38;5044473;28;20226;-68
2022/01/02 06:27:50;;;;;;;14.93;11.43;;;;;;;5.94;68.56;99367.16;5041743;28;20220;-68
2022/01/02 06:30:17;;;;;;;15.73;11.07;;;;;;;4.85;69.98;99389.81;5045564;28;20222;-68
2022/01/02 06:32:44;;;;;;;17.90;12.33;;;;;;;5.87;68.10;99337.81;5037379;28;20242;-68
2022/01/02 06:35:12;;;;;;;14.63;12.53;;;;;;;7.07;63.35;99301.84;5036700;28;20230;-68
2022/01/02 06:37:39;;;;;;;13.57;11.73;;;;;;;8.70;60.31;99214.38;5044916;28;20230;-68
2022/01/02 06:40:07;;;;;;;16.03;12.23;;;;;;;6.13;64.34;99332.56;5041926;28;20907;-68
2022/01/02 06:42:34;;;;;;;14.50;12.00;;;;;;;4.83;70.27;99377.75;5025549;28;20536;-68
2022/01/02 06:45:01;;;;;;;13.33;11.80;;;;;;;4.85;69.52;99366.03;5035343;28;20236;-68
2022/01/02 06:47:28;;;;;;;15.10;11.83;;;;;;;5.59;68.26;99351.09;5030554;28;20924;-68
2022/01/02 06:49:55;;;;;;;13.70;11.67;;;;;;;7.30;63.51;99285.31;5027772;28;20228;-68
2022/01/02 06:52:22;;;;;;;16.30;14.00;;;;;;;8.31;60.46;99246.22;5025895;28;20479;-68
2022/01/02 06:54:53;;;;;;;16.67;14.07;;;;;;;8.23;61.26;99279.78;5036562;28;20236;-68
2022/01/02 06:57:21;;;;;;;15.57;12.97;;;;;;;8.04;61.46;99299.56;5045231;28;20602;-68
2022/01/02 06:59:49;;;;;;;16.33;12.60;;;;;;;7.75;61.30;99310.66;5031535;28;20246;-68
2022/01/02 07:02:20;;;;;;;13.67;11.67;;;;;;;8.53;60.17;99272.09;5025173;28;20235;-68
2022/01/02 07:04:47;;;;;;;16.23;12.23;;;;;;;8.87;58.19;99248.88;5029617;28;20275;-66
2022/01/02 07:07:14;;;;;;;19.27;13.33;;;;;;;6.66;65.63;99354.69;5029730;28;20759;-66
2022/01/02 07:09:41;;;;;;;17.63;13.40;;;;;;;5.67;67.25;99383.94;5038658;28;20231;-66
2022/01/02 07:12:08;;;;;;;17.43;13.53;;;;;;;4.71;70.48;99395.56;5035608;28;20234;-66
2022/01/02 07:14:35;;;;;;;16.90;13.50;;;;;;;5.70;68.75;99373.88;5026599;28;20756;-66
2022/01/02 07:17:02;;;;;;;14.40;12.37;;;;;;;5.97;66.72;99358.94;5035877;28;20228;-66
2022/01/02 07:19:29;;;;;;;13.57;11.57;;;;;;;4.55;70.40;99404.06;5040620;28;20220;-66
2022/01/02 07:21:58;;;;;;;15.90;11.93;;;;;;;4.35;72.90;99416.50;5041546;28;20220;-66
2022/01/02 07:24:25;;;;;;;13.70;11.33;;;;;;;5.63;69.14;99349.84;5034376;28;20252;-66
2022/01/02 07:26:53;;;;;;;12.87;10.07;;;;;;;7.37;64.84;99265.13;5037188;28;20261;-66
2022/01/02 07:29:20;;;;;;;12.27;10.60;;;;;;;7.43;63.51;99271.59;5045833;28;20277;-66
2022/01/02 07:31:47;;;;;;;14.13;10.47;;;;;;;8.19;61.12;99248.38;5047738;28;20242;-66
2022/01/02 07:34:15;;;;;;;18.37;12.60;;;;;;;7.80;61.60;99278.31;5048809;28;20596;-66
2022/01/02 07:36:45;;;;;;;19.33;12.40;;;;;;;8.20;60.88;99266.81;5062045;28;20224;-68
2022/01/02 07:39:13;;;;;;;14.83;11.93;;;;;;;8.01;61.78;99283.09;5038902;28;20220;-68
2022/01/02 07:41:41;;;;;;;15.60;10.67;;;;;;;8.42;61.05;99256.50;5043022;28;20227;-68
2022/01/02 07:44:08;;;;;;;12.53;10.20;;;;;;;8.09;61.72;99272.47;5047454;28;20227;-68
2022/01/02 07:46:35;;;;;;;11.67;8.93;;;;;;;8.04;61.70;99288.94;5048687;28;20858;-68
2022/01/02 07:49:02;;;;;;;11.30;8.93;;;;;;;7.57;63.01;99315.22;5045290;28;20237;-68
2022/01/02 07:51:29;;;;;;;11.30;9.70;;;;;;;7.90;62.44;99296.72;5045831;28;20248;-68
2022/01/02 07:53:57;;;;;;;11.07;8.23;;;;;;;8.09;61.73;99280.44;5037903;28;20234;-68
2022/01/02 07:56:25;;;;;;;11.87;9.30;;;;;;;8.12;61.43;99277.47;5047632;28;20226;-68
2022/01/02 07:58:52;;;;;;;12.97;9.63;;;;;;;8.22;62.05;99287.91;5047764;28;20236;-67
2022/01/02 08:01:19;;;;;;;12.13;8.60;;;;;;;8.29;61.73;99280.09;5047273;28;20228;-68
2022/01/02 08:03:47;;;;;;;11.13;8.33;;;;;;;8.02;61.99;99298.88;5047014;28;20220;-68
2022/01/02 08:06:16;;;;;;;11.63;8.57;;;;;;;8.03;62.11;99294.41;5037911;28;20240;-68
2022/01/02 08:08:45;;;;;;;13.33;8.80;;;;;;;8.77;60.11;99257.09;5043238;28;20228;-68
2022/01/02 08:11:15;;;;;;;10.83;8.83;;;;;;;8.49;60.48;99276.06;5047454;28;20564;-68
2022/01/02 08:14:02;;;;;;;11.43;8.57;;;;;;;8.91;60.28;99259.00;5048215;28;20224;-68
2022/01/02 08:16:29;;;;;;;11.33;8.73;;;;;;;9.48;58.82;99238.41;5046708;28;20243;-68
2022/01/02 08:18:56;;;;;;;11.43;9.03;;;;;;;7.55;62.52;99306.63;5041640;28;20239;-68
2022/01/02 08:21:23;;;;;;;12.00;8.27;;;;;;;8.22;61.96;99282.59;5041057;28;20232;-68
2022/01/02 08:23:50;;;;;;;10.03;7.40;;;;;;;6.57;67.65;99361.72;5046863;28;20235;-68
2022/01/02 08:26:20;;;;;;;9.23;7.10;;;;;;;7.36;65.33;99311.22;5046409;28;20739;-68
2022/01/02 08:28:47;;;;;;;9.90;7.07;;;;;;;5.15;70.58;99350.09;5048363;28;20234;-68
2022/01/02 08:31:14;;;;;;;10.97;7.80;;;;;;;5.94;69.62;99354.75;5043998;28;20236;-68
2022/01/02 08:33:41;;;;;;;11.10;7.90;;;;;;;5.13;71.48;99370.59;5037505;28;21111;-68
2022/01/02 08:36:08;;;;;;;10.83;8.03;;;;;;;5.95;68.64;99345.84;5047574;28;20232;-68
2022/01/02 08:38:35;;;;;;;10.70;8.40;;;;;;;5.27;71.01;99357.69;5043678;28;21389;-68
2022/01/02 08:41:02;;;;;;;10.17;8.40;;;;;;;5.02;72.08;99376.88;5037677;28;20224;-68
2022/01/02 08:43:29;;;;;;;10.67;7.67;;;;;;;7.03;67.37;99289.91;5043417;28;20228;-68
2022/01/02 08:45:56;;;;;;;11.50;9.33;;;;;;;8.24;64.14;99249.56;5037395;28;20232;-68
2022/01/02 08:48:23;;;;;;;14.07;9.43;;;;;;;8.35;63.17;99250.19;5020462;28;20580;-68
2022/01/02 08:50:51;;;;;;;14.43;9.03;;;;;;;6.24;67.78;99358.00;5026801;28;20229;-68
2022/01/02 08:53:18;;;;;;;12.43;8.20;;;;;;;5.60;71.30;99397.75;5022496;28;20229;-68
2022/01/02 08:55:46;;;;;;;12.17;8.00;;;;;;;7.45;67.22;99298.78;5027239;28;20234;-68
2022/01/02 08:58:13;;;;;;;10.27;6.97;;;;;;;8.84;62.49;99238.59;5038110;28;20228;-68
2022/01/02 09:00:40;;;;;;;12.57;8.23;;;;;;;8.22;64.67;99285.25;5037565;28;20235;-68
2022/01/02 09:03:07;;;;;;;10.23;7.70;;;;;;;8.33;63.87;99295.53;5047676;28;20236;-68
2022/01/02 09:05:34;;;;;;;9.20;7.23;;;;;;;9.04;61.53;99254.94;5044216;28;20227;-68
2022/01/02 09:08:01;;;;;;;8.57;7.10;;;;;;;8.84;62.75;99263.34;5048028;28;20225;-68
2022/01/02 09:10:28;;;;;;;8.57;6.80;;;;;;;9.29;61.21;99258.28;5045382;28;20220;-68
2022/01/02 09:12:55;;;;;;;11.17;7.03;;;;;;;7.62;64.60;99326.22;5037588;28;20245;-68
2022/01/02 09:15:22;;;;;;;8.97;6.97;;;;;;;8.82;63.34;99284.00;5039801;28;20249;-68
2022/01/02 09:17:49;;;;;;;9.47;6.90;;;;;;;9.03;62.61;99283.38;5044678;28;20221;-68
2022/01/02 09:20:17;;;;;;;8.57;6.77;;;;;;;9.09;61.58;99276.53;5044651;28;20232;-68
2022/01/02 09:22:44;;;;;;;8.97;6.90;;;;;;;9.13;61.28;99270.69;5047251;28;20227;-68
2022/01/02 09:25:11;;;;;;;8.67;6.10;;;;;;;9.13;61.10;99270.69;5040912;28;20229;-68
2022/01/02 09:27:41;;;;;;;7.43;5.70;;;;;;;9.08;61.15;99285.53;5039010;28;20242;-68
2022/01/02 09:30:08;;;;;;;7.37;5.83;;;;;;;7.16;63.92;99339.84;5046984;28;20230;-68
2022/01/02 09:32:35;;;;;;;7.93;6.17;;;;;;;8.68;62.05;99289.97;5038560;28;20378;-68
2022/01/02 09:35:04;;;;;;;9.30;6.30;;;;;;;7.90;63.99;99313.50;5040472;28;20445;-68
2022/01/02 09:37:31;;;;;;;10.93;7.87;;;;;;;6.37;69.53;99349.66;5034565;28;20262;-68
2022/01/02 09:39:58;;;;;;;10.67;7.97;;;;;;;6.21;70.08;99368.88;5022464;28;20237;-68
2022/01/02 09:42:25;;;;;;;10.47;8.00;;;;;;;8.76;63.89;99274.84;5020094;28;20240;-68
2022/01/02 09:44:52;;;;;;;12.43;8.07;;;;;;;9.12;61.68;99270.88;5037280;28;20228;-68
2022/01/02 09:47:21;;;;;;;9.93;7.77;;;;;;;9.19;61.03;99263.88;5035061;28;20220;-68
2022/01/02 09:49:49;;;;;;;10.80;8.80;;;;;;;9.72;59.80;99230.19;5054067;28;20220;-68
2022/01/02 09:52:18;;;;;;;12.70;8.50;;;;;;;8.47;64.40;99293.19;5035207;28;20234;-68
2022/01/02 09:54:45;;;;;;;11.40;8.27;;;;;;;8.82;63.29;99262.72;5042471;28;20228;-67
2022/01/02 09:57:13;;;;;;;10.63;8.30;;;;;;;7.16;68.85;99328.41;5051426;28;20224;-67
2022/01/02 09:59:39;;;;;;;10.43;8.60;;;;;;;8.63;63.74;99242.63;5053176;28;20696;-67
2022/01/02 10:02:07;;;;;;;14.00;10.70;;;;;;;8.31;64.86;99284.22;5049395;28;20215;-67
2022/01/02 10:04:37;;;;;;;10.87;9.07;;;;;;;9.11;62.25;99253.25;5031743;28;20690;-67
2022/01/02 10:07:06;;;;;;;10.33;8.90;;;;;;;7.67;63.80;99276.97;5033140;28;20256;-67
2022/01/02 10:09:36;;;;;;;10.10;8.00;;;;;;;7.75;64.64;99270.00;5041458;28;20228;-67
2022/01/02 10:12:26;;;;;;;10.80;8.07;;;;;;;6.21;69.93;99342.41;5046362;28;20355;-67
2022/01/02 10:15:05;;;;;;;10.13;7.20;;;;;;;7.25;68.18;99296.44;5043846;28;20261;-67
2022/01/02 10:17:55;;;;;;;11.33;7.73;;;;;;;9.10;62.44;99185.06;5043789;28;20229;-67
2022/01/02 10:20:45;;;;;;;10.47;7.90;;;;;;;8.52;64.42;99237.69;5036056;28;20229;-67
2022/01/02 10:23:18;;;;;;;10.43;7.57;;;;;;;9.41;61.56;99206.34;5040736;28;20230;-67
2022/01/02 10:25:47;;;;;;;12.67;7.87;;;;;;;9.60;60.59;99185.56;5045030;28;20226;-68
2022/01/02 10:28:33;;;;;;;10.17;7.43;;;;;;;9.32;61.17;99194.06;5045379;28;20737;-67
2022/01/02 10:31:13;;;;;;;9.40;7.43;;;;;;;9.15;61.05;99198.69;5041082;28;20236;-67
2022/01/02 10:33:49;;;;;;;12.93;7.07;;;;;;;9.22;61.19;99220.09;5036726;28;20315;-67
2022/01/02 10:36:40;;;;;;;10.70;7.43;;;;;;;8.81;62.29;99245.09;5026464;28;20219;-67
2022/01/02 10:39:12;;;;;;;7.93;6.23;;;;;;;9.01;61.88;99240.16;5044265;28;20238;-67
2022/01/02 10:41:45;;;;;;;9.67;7.43;;;;;;;8.71;62.32;99252.41;5023229;28;20234;-67
2022/01/02 10:44:34;;;;;;;9.90;6.73;;;;;;;7.72;63.79;99252.56;5041348;28;20246;-67
2022/01/02 10:47:17;;;;;;;9.93;6.03;;;;;;;8.99;61.78;99212.91;5037122;28;20244;-67
2022/01/02 10:50:03;;;;;;;10.27;6.60;;;;;;;9.17;61.04;99196.66;5045638;28;20236;-67
2022/01/02 10:52:35;;;;;;;7.77;6.00;;;;;;;9.62;60.45;99186.19;5039257;28;20229;-67
2022/01/02 10:55:23;;;;;;;8.20;6.30;;;;;;;8.90;60.81;99216.63;5042602;28;20257;-67
2022/01/02 10:57:52;;;;;;;6.47;5.17;;;;;;;9.49;59.80;99200.94;5037802;28;20236;-67
2022/01/02 11:03:48;;;;;;;7.60;6.13;;;;;;;7.58;64.73;99211.56;5061324;28;20368;-68
2022/01/02 11:06:29;;;;;;;8.93;6.57;;;;;;;7.91;64.03;99218.72;5061971;28;20218;-68
2022/01/02 11:08:58;;;;;;;9.33;6.80;;;;;;;8.38;62.61;99199.34;5046615;28;20227;-68
2022/01/02 11:11:27;;;;;;;8.37;5.93;;;;;;;8.00;63.78;99199.13;5010671;28;20746;-68
2022/01/02 11:13:56;;;;;;;8.13;5.93;;;;;;;8.31;62.59;99212.47;5002625;28;20213;-68
2022/01/02 11:16:24;;;;;;;6.50;5.23;;;;;;;8.08;62.96;99215.06;4996842;28;20221;-68
2022/01/02 11:18:52;;;;;;;8.37;5.53;;;;;;;7.84;63.36;99222.06;5009803;28;20233;-68
2022/01/02 11:21:22;;;;;;;7.67;5.57;;;;;;;7.95;64.11;99228.84;5006886;28;20613;-68
2022/01/02 11:23:57;;;;;;;7.87;5.53;;;;;;;8.41;62.36;99207.81;5032497;28;20231;-68
2022/01/02 11:26:39;;;;;;;7.90;5.70;;;;;;;8.18;62.47;99206.91;5012697;28;20228;-68
2022/01/02 11:29:14;;;;;;;9.80;6.20;;;;;;;8.04;63.12;99206.59;5023786;28;20614;-68
2022/01/02 11:31:46;;;;;;;6.07;5.37;;;;;;;8.30;62.22;99186.09;5022796;28;20592;-68
2022/01/02 11:34:31;;;;;;;8.37;6.40;;;;;;;8.49;62.06;99182.22;5033216;28;20224;-68
2022/01/02 11:37:11;;;;;;;8.63;6.50;;;;;;;8.68;61.40;99187.09;5018913;28;20709;-68
2022/01/02 11:40:01;;;;;;;8.37;6.70;;;;;;;8.40;62.22;99192.88;5015405;28;20239;-68
2022/01/02 11:42:34;;;;;;;8.57;6.70;;;;;;;8.95;60.27;99169.03;5020988;28;20231;-68
2022/01/02 11:45:23;;;;;;;11.10;5.87;;;;;;;9.02;60.66;99146.06;5017012;28;20242;-68
2022/01/02 11:47:51;;;;;;;9.53;6.43;;;;;;;8.75;61.49;99172.16;5014725;28;20230;-68
2022/01/02 11:50:33;;;;;;;8.40;6.23;;;;;;;7.67;61.92;99173.44;5014607;28;20241;-68